Time;durP1;ratioP1;P1;durP2;ratioP2;P2;SDS_P1;SDS_P2;PMS_P1;PMS_P2;Temp;Humidity;BMP_temperature;BMP_pressure;BME280_temperature;BME280_humidity;BME280_pressure;Samples;Min_cycle;Max_cycle;Signal;HPM_P1;HPM_P2
2022/01/02 00:00:19;;;;;;;0.50;0.50;;;10.40;99.90;;;;;;4445415;32;20068;-67
2022/01/02 00:02:50;;;;;;;0.50;0.50;;;10.40;99.90;;;;;;4445306;32;20101;-67
2022/01/02 00:05:19;;;;;;;0.50;0.50;;;10.40;99.90;;;;;;4445056;32;20460;-66
2022/01/02 00:07:57;;;;;;;0.77;0.77;;;10.40;99.90;;;;;;4434206;32;20391;-66
2022/01/02 00:10:26;;;;;;;6.72;2.05;;;10.40;99.90;;;;;;4445206;32;20065;-66
2022/01/02 00:12:57;;;;;;;0.95;0.95;;;10.40;99.90;;;;;;4445549;32;20073;-67
2022/01/02 00:15:24;;;;;;;0.50;0.50;;;10.40;99.90;;;;;;4446491;32;20053;-68
2022/01/02 00:17:51;;;;;;;0.65;0.65;;;10.30;99.90;;;;;;4444434;32;20105;-67
2022/01/02 00:20:20;;;;;;;0.95;0.80;;;10.30;99.90;;;;;;4445389;32;20078;-67
2022/01/02 00:22:50;;;;;;;5.22;0.55;;;10.30;99.90;;;;;;4444833;32;20493;-65
2022/01/02 00:25:36;;;;;;;0.52;0.50;;;10.30;99.90;;;;;;4444523;32;20069;-66
2022/01/02 00:28:02;;;;;;;0.32;0.32;;;10.20;99.90;;;;;;4443956;32;20065;-67
2022/01/02 00:30:27;;;;;;;1.17;0.95;;;10.10;99.90;;;;;;4443884;32;20109;-69
2022/01/02 00:32:54;;;;;;;0.60;0.60;;;10.10;99.90;;;;;;4445756;32;20068;-67
2022/01/02 00:35:21;;;;;;;3.42;0.88;;;10.20;99.90;;;;;;4445752;32;20078;-67
2022/01/02 00:37:47;;;;;;;0.50;0.50;;;10.00;99.90;;;;;;4446009;32;20057;-66
2022/01/02 00:40:15;;;;;;;1.05;0.60;;;10.00;99.90;;;;;;4444651;32;20085;-66
2022/01/02 00:42:42;;;;;;;0.60;0.60;;;9.90;99.90;;;;;;4431654;32;20594;-66
2022/01/02 00:45:26;;;;;;;0.82;0.70;;;10.00;99.90;;;;;;4445449;32;20160;-66
2022/01/02 00:48:06;;;;;;;1.00;1.00;;;10.00;99.90;;;;;;4445567;32;20074;-66
2022/01/02 00:50:48;;;;;;;1.83;0.90;;;9.90;99.90;;;;;;4445536;32;20513;-66
2022/01/02 00:53:17;;;;;;;14.70;0.88;;;9.80;99.90;;;;;;4443608;32;20438;-66
2022/01/02 00:55:45;;;;;;;0.50;0.50;;;9.80;99.90;;;;;;4442133;32;20089;-66
2022/01/02 00:58:14;;;;;;;4.70;1.80;;;9.70;99.90;;;;;;4444141;32;20065;-67
2022/01/02 01:00:49;;;;;;;0.60;0.60;;;9.80;99.90;;;;;;4445374;32;20552;-66
2022/01/02 01:03:26;;;;;;;0.62;0.62;;;9.90;99.90;;;;;;4445842;32;20065;-66
2022/01/02 01:05:54;;;;;;;0.62;0.57;;;9.90;99.90;;;;;;4444344;32;20097;-67
2022/01/02 01:08:22;;;;;;;0.62;0.62;;;9.90;99.90;;;;;;4431097;32;20069;-66
2022/01/02 01:10:48;;;;;;;0.47;0.47;;;9.80;99.90;;;;;;4444762;32;20144;-66
2022/01/02 01:13:15;;;;;;;1.27;1.15;;;9.80;99.90;;;;;;4444896;32;20562;-66
2022/01/02 01:15:42;;;;;;;0.90;0.80;;;9.80;99.90;;;;;;4444363;32;20359;-67
2022/01/02 01:18:08;;;;;;;1.00;0.88;;;9.80;99.90;;;;;;4444122;32;20077;-66
2022/01/02 01:20:38;;;;;;;0.50;0.50;;;9.80;99.90;;;;;;4443879;32;20066;-67
2022/01/02 01:23:05;;;;;;;0.60;0.60;;;9.70;99.90;;;;;;4443105;32;20057;-68
2022/01/02 01:25:30;;;;;;;0.77;0.77;;;9.70;99.90;;;;;;4445493;32;20077;-66
2022/01/02 01:27:57;;;;;;;4.78;1.40;;;9.70;99.90;;;;;;4444988;32;20073;-66
2022/01/02 01:30:25;;;;;;;0.52;0.52;;;9.70;99.90;;;;;;4444034;32;20166;-66
2022/01/02 01:32:52;;;;;;;0.40;0.40;;;9.70;99.90;;;;;;4445060;32;20077;-67
2022/01/02 01:35:19;;;;;;;0.57;0.57;;;9.70;99.90;;;;;;4444289;32;20466;-67
2022/01/02 01:37:44;;;;;;;0.60;0.60;;;9.70;99.90;;;;;;4444358;32;20517;-67
2022/01/02 01:40:11;;;;;;;0.62;0.60;;;9.70;99.90;;;;;;4442892;32;20057;-66
2022/01/02 01:42:41;;;;;;;0.70;0.70;;;9.60;99.90;;;;;;4443744;32;20496;-65
2022/01/02 01:47:46;;;;;;;0.60;0.50;;;9.60;99.90;;;;;;4445213;32;20125;-66
2022/01/02 01:50:12;;;;;;;0.32;0.32;;;9.60;99.90;;;;;;4445928;32;20088;-66
2022/01/02 01:52:38;;;;;;;0.85;0.82;;;9.60;99.90;;;;;;4444620;32;20081;-67
2022/01/02 01:55:05;;;;;;;0.40;0.40;;;9.60;99.90;;;;;;4445599;32;20053;-66
2022/01/02 01:57:31;;;;;;;0.40;0.40;;;9.50;99.90;;;;;;4442719;32;20168;-67
2022/01/02 01:59:57;;;;;;;0.50;0.50;;;9.40;99.90;;;;;;4427751;32;20053;-66
2022/01/02 02:02:23;;;;;;;0.50;0.50;;;9.50;99.90;;;;;;4432654;32;20596;-67
2022/01/02 02:04:49;;;;;;;0.60;0.60;;;9.50;99.90;;;;;;4444178;32;20108;-66
2022/01/02 02:07:15;;;;;;;3.65;0.70;;;9.50;99.90;;;;;;4444083;32;20425;-66
2022/01/02 02:09:59;;;;;;;1.87;0.82;;;9.40;99.90;;;;;;4443507;32;20065;-65
2022/01/02 02:12:25;;;;;;;4.90;1.30;;;9.40;99.90;;;;;;4443728;32;20132;-66
2022/01/02 02:14:51;;;;;;;0.40;0.40;;;9.40;99.90;;;;;;4443420;32;20061;-66
2022/01/02 02:17:17;;;;;;;0.40;0.40;;;9.40;99.90;;;;;;4443498;32;20077;-66
2022/01/02 02:19:42;;;;;;;4.25;1.17;;;9.30;99.90;;;;;;4443682;32;20112;-67
2022/01/02 02:22:08;;;;;;;0.98;0.47;;;9.40;99.90;;;;;;4444832;32;20081;-66
2022/01/02 02:24:34;;;;;;;0.37;0.37;;;9.30;99.90;;;;;;4444237;32;20053;-66
2022/01/02 02:26:59;;;;;;;9.23;0.98;;;9.30;99.90;;;;;;4442429;32;20076;-66
2022/01/02 02:29:24;;;;;;;0.50;0.50;;;9.20;99.90;;;;;;4444488;32;20528;-67
2022/01/02 02:31:54;;;;;;;6.95;2.65;;;9.20;99.90;;;;;;4429198;32;20081;-66
2022/01/02 02:34:20;;;;;;;0.90;0.70;;;9.30;99.90;;;;;;4442657;32;20122;-67
2022/01/02 02:36:46;;;;;;;0.40;0.40;;;9.30;99.90;;;;;;4444177;32;20147;-66
2022/01/02 02:39:11;;;;;;;4.47;0.75;;;9.30;99.90;;;;;;4443538;32;20244;-66
2022/01/02 02:41:39;;;;;;;0.47;0.47;;;9.30;99.90;;;;;;4444397;32;20127;-66
2022/01/02 02:44:15;;;;;;;0.60;0.60;;;9.30;99.90;;;;;;4443543;32;20414;-66
2022/01/02 02:49:00;;;;;;;0.90;0.90;;;9.30;99.90;;;;;;4443003;32;20057;-67
2022/01/02 02:49:26;;;;;;;0.68;0.68;;;9.40;99.90;;;;;;4430860;32;20062;-66
2022/01/02 02:51:57;;;;;;;1.08;0.60;;;9.30;99.90;;;;;;4443035;32;20430;-66
2022/01/02 02:54:26;;;;;;;1.17;0.80;;;9.20;99.90;;;;;;4443269;32;20115;-66
2022/01/02 02:59:20;;;;;;;2.35;0.70;;;9.20;99.90;;;;;;4442220;32;20126;-66
2022/01/02 03:01:46;;;;;;;0.40;0.40;;;9.20;99.90;;;;;;4443471;32;20061;-66
2022/01/02 03:04:11;;;;;;;4.53;1.15;;;9.20;99.90;;;;;;4443889;32;20540;-67
2022/01/02 03:06:37;;;;;;;0.40;0.40;;;9.20;99.90;;;;;;4443467;32;20061;-66
2022/01/02 03:09:08;;;;;;;0.60;0.60;;;9.20;99.90;;;;;;4444611;32;20061;-66
2022/01/02 03:11:37;;;;;;;0.50;0.50;;;9.20;99.90;;;;;;4444815;32;20106;-66
2022/01/02 03:14:04;;;;;;;3.95;0.65;;;9.30;99.90;;;;;;4444155;32;20046;-66
2022/01/02 03:16:30;;;;;;;0.55;0.55;;;9.20;99.90;;;;;;4442300;32;20152;-67
2022/01/02 03:18:55;;;;;;;0.40;0.40;;;9.20;99.90;;;;;;4442728;32;20140;-66
2022/01/02 03:21:22;;;;;;;2.35;0.52;;;9.20;99.90;;;;;;4442794;32;20557;-66
2022/01/02 03:23:48;;;;;;;0.45;0.45;;;9.10;99.90;;;;;;4443293;32;20085;-66
2022/01/02 03:26:14;;;;;;;0.50;0.50;;;9.10;99.90;;;;;;4443385;32;20061;-67
2022/01/02 03:28:39;;;;;;;0.77;0.77;;;9.10;99.90;;;;;;4442512;32;20176;-67
2022/01/02 03:31:05;;;;;;;0.40;0.40;;;9.20;99.90;;;;;;4442772;32;20085;-66
2022/01/02 03:33:31;;;;;;;0.60;0.60;;;9.20;99.90;;;;;;4443114;32;20057;-66
2022/01/02 03:35:56;;;;;;;0.40;0.40;;;9.20;99.90;;;;;;4442626;32;20061;-67
2022/01/02 03:38:22;;;;;;;0.40;0.40;;;9.20;99.90;;;;;;4443102;32;20049;-65
2022/01/02 03:40:48;;;;;;;0.62;0.60;;;9.30;99.90;;;;;;4444066;32;20057;-66
2022/01/02 03:43:13;;;;;;;0.60;0.60;;;9.20;99.90;;;;;;4442866;32;20105;-66
2022/01/02 03:45:39;;;;;;;0.47;0.47;;;9.10;99.90;;;;;;4442518;32;20420;-66
2022/01/02 03:48:04;;;;;;;0.60;0.60;;;9.20;99.90;;;;;;4428307;32;20069;-65
2022/01/02 03:50:30;;;;;;;0.40;0.40;;;9.20;99.90;;;;;;4442473;32;20061;-66
2022/01/02 03:52:55;;;;;;;1.35;0.73;;;9.10;99.90;;;;;;4443035;32;20426;-66
2022/01/02 03:55:21;;;;;;;3.10;0.88;;;9.10;99.90;;;;;;4443193;32;20135;-65
2022/01/02 03:57:47;;;;;;;0.30;0.30;;;9.00;99.90;;;;;;4444142;32;20057;-66
2022/01/02 04:00:14;;;;;;;0.40;0.40;;;9.00;99.90;;;;;;4444584;32;20126;-65
2022/01/02 04:02:41;;;;;;;0.35;0.35;;;9.00;99.90;;;;;;4445014;32;20058;-66
2022/01/02 04:05:07;;;;;;;1.50;1.12;;;9.00;99.90;;;;;;4445034;32;20225;-66
2022/01/02 04:07:33;;;;;;;0.40;0.40;;;9.00;99.90;;;;;;4445496;32;20435;-67
2022/01/02 04:10:05;;;;;;;0.37;0.37;;;9.00;99.90;;;;;;4446078;32;20065;-67
2022/01/02 04:12:31;;;;;;;0.30;0.30;;;9.10;99.90;;;;;;4445226;32;20115;-67
2022/01/02 04:14:57;;;;;;;0.77;0.60;;;9.10;99.90;;;;;;4446441;32;20526;-67
2022/01/02 04:17:23;;;;;;;9.32;1.15;;;9.10;99.90;;;;;;4441624;32;20066;-65
2022/01/02 04:19:50;;;;;;;0.65;0.62;;;9.10;99.90;;;;;;4439272;32;20081;-66
2022/01/02 04:22:15;;;;;;;2.05;1.27;;;9.10;99.90;;;;;;4447309;32;20061;-66
2022/01/02 04:24:41;;;;;;;0.50;0.50;;;9.10;99.90;;;;;;4444401;32;20081;-67
2022/01/02 04:27:06;;;;;;;1.45;0.85;;;9.10;99.90;;;;;;4444635;32;20078;-66
2022/01/02 04:29:32;;;;;;;2.20;0.73;;;9.10;99.90;;;;;;4446853;32;20069;-66
2022/01/02 04:31:57;;;;;;;0.45;0.45;;;9.10;99.90;;;;;;4444589;32;20073;-66
2022/01/02 04:34:23;;;;;;;0.30;0.30;;;9.00;99.90;;;;;;4442715;32;101241;-66
2022/01/02 04:36:48;;;;;;;0.52;0.50;;;9.10;99.90;;;;;;4447221;32;20378;-67
2022/01/02 04:39:14;;;;;;;0.55;0.55;;;9.10;99.90;;;;;;4446285;32;20061;-66
2022/01/02 04:41:39;;;;;;;0.80;0.60;;;9.10;99.90;;;;;;4446217;32;20524;-66
2022/01/02 04:44:05;;;;;;;0.50;0.50;;;9.10;99.90;;;;;;4447098;32;20061;-67
2022/01/02 04:46:30;;;;;;;0.50;0.50;;;9.00;99.90;;;;;;4445700;32;20107;-67
2022/01/02 04:48:56;;;;;;;0.47;0.47;;;9.00;99.90;;;;;;4445219;32;20501;-66
2022/01/02 04:51:21;;;;;;;0.30;0.30;;;9.00;99.90;;;;;;4444870;32;20077;-66
2022/01/02 04:53:48;;;;;;;0.55;0.55;;;9.00;99.90;;;;;;4445380;32;20057;-67
2022/01/02 04:56:15;;;;;;;0.50;0.50;;;9.00;99.90;;;;;;4440656;32;20080;-66
2022/01/02 04:58:40;;;;;;;0.80;0.40;;;9.10;99.90;;;;;;4443897;32;20081;-68
2022/01/02 05:01:11;;;;;;;0.40;0.40;;;9.10;99.90;;;;;;4445805;32;20076;-66
2022/01/02 05:03:37;;;;;;;0.50;0.50;;;9.10;99.90;;;;;;4446250;32;20115;-66
2022/01/02 05:06:03;;;;;;;1.30;0.95;;;9.00;99.90;;;;;;4444294;32;20533;-67
2022/01/02 05:08:28;;;;;;;2.08;1.45;;;9.10;99.90;;;;;;4445000;32;20065;-67
2022/01/02 05:10:54;;;;;;;2.08;0.50;;;9.10;99.90;;;;;;4444958;32;20142;-67
2022/01/02 05:13:19;;;;;;;0.70;0.70;;;9.00;99.90;;;;;;4444081;32;20073;-66
2022/01/02 05:15:45;;;;;;;1.17;0.93;;;8.90;99.90;;;;;;4446052;32;20061;-67
2022/01/02 05:18:10;;;;;;;4.28;1.83;;;8.90;99.90;;;;;;4445619;32;20060;-67
2022/01/02 05:20:36;;;;;;;0.40;0.40;;;9.00;99.90;;;;;;4443848;32;20077;-68
2022/01/02 05:23:01;;;;;;;0.55;0.55;;;9.00;99.90;;;;;;4445777;32;20123;-66
2022/01/02 05:25:27;;;;;;;1.42;0.70;;;9.00;99.90;;;;;;4445288;32;20406;-67
2022/01/02 05:27:53;;;;;;;1.50;0.93;;;9.00;99.90;;;;;;4430166;32;20069;-66
2022/01/02 05:30:19;;;;;;;0.40;0.40;;;9.00;99.90;;;;;;4444029;32;20085;-67
2022/01/02 05:32:44;;;;;;;0.40;0.40;;;8.90;99.90;;;;;;4444289;32;20472;-67
2022/01/02 05:35:10;;;;;;;1.55;0.52;;;9.00;99.90;;;;;;4443842;32;20085;-66
2022/01/02 05:37:35;;;;;;;2.50;1.10;;;9.00;99.90;;;;;;4444079;32;20398;-65
2022/01/02 05:40:01;;;;;;;0.40;0.40;;;9.00;99.90;;;;;;4444009;32;20062;-66
2022/01/02 05:42:27;;;;;;;0.30;0.30;;;8.90;99.90;;;;;;4427675;32;20172;-67
2022/01/02 05:44:52;;;;;;;0.62;0.62;;;8.90;99.90;;;;;;4443507;32;20061;-66
2022/01/02 05:47:17;;;;;;;0.47;0.47;;;8.80;99.90;;;;;;4444179;32;20065;-66
2022/01/02 05:49:43;;;;;;;0.57;0.57;;;8.70;99.90;;;;;;4443515;32;20100;-66
2022/01/02 05:52:09;;;;;;;0.50;0.50;;;8.80;99.90;;;;;;4443871;32;20068;-66
2022/01/02 05:54:34;;;;;;;0.60;0.60;;;8.70;99.90;;;;;;4444077;32;20152;-67
2022/01/02 05:57:00;;;;;;;0.45;0.45;;;8.70;99.90;;;;;;4439441;32;20444;-66
2022/01/02 05:59:25;;;;;;;1.90;0.95;;;8.70;99.90;;;;;;4443833;32;20131;-66
2022/01/02 06:01:50;;;;;;;0.40;0.40;;;8.70;99.90;;;;;;4443835;32;20427;-67
2022/01/02 06:04:16;;;;;;;0.93;0.40;;;8.70;99.90;;;;;;4444373;32;20076;-66
2022/01/02 06:06:44;;;;;;;0.30;0.30;;;8.70;99.90;;;;;;4443720;32;20520;-66
2022/01/02 06:09:09;;;;;;;0.32;0.32;;;8.70;99.90;;;;;;4444645;32;20168;-67
2022/01/02 06:11:35;;;;;;;0.50;0.50;;;8.70;99.90;;;;;;4444399;32;20075;-66
2022/01/02 06:14:00;;;;;;;0.40;0.40;;;8.60;99.90;;;;;;4445242;32;20081;-66
2022/01/02 06:16:26;;;;;;;0.52;0.52;;;8.70;99.90;;;;;;4444789;32;20066;-67
2022/01/02 06:18:53;;;;;;;0.50;0.50;;;8.70;99.90;;;;;;4445262;32;20563;-66
2022/01/02 06:21:19;;;;;;;1.00;0.77;;;8.60;99.90;;;;;;4443851;32;20057;-66
2022/01/02 06:23:44;;;;;;;0.30;0.30;;;8.60;99.90;;;;;;4445041;32;20081;-66
2022/01/02 06:26:10;;;;;;;1.05;0.80;;;8.60;99.90;;;;;;4444291;32;20563;-67
2022/01/02 06:28:35;;;;;;;0.50;0.50;;;8.70;99.90;;;;;;4443789;32;20545;-68
2022/01/02 06:31:01;;;;;;;2.70;1.08;;;8.70;99.90;;;;;;4443807;32;20138;-67
2022/01/02 06:33:26;;;;;;;0.80;0.75;;;8.70;99.90;;;;;;4444170;32;20537;-67
2022/01/02 06:35:52;;;;;;;0.50;0.50;;;8.80;99.90;;;;;;4443456;32;20475;-67
2022/01/02 06:38:19;;;;;;;3.53;0.55;;;8.80;99.90;;;;;;4443882;32;20073;-66
2022/01/02 06:40:45;;;;;;;0.50;0.50;;;8.80;99.90;;;;;;4443728;32;20081;-66
2022/01/02 06:43:13;;;;;;;0.55;0.55;;;8.80;99.90;;;;;;4443907;32;20077;-66
2022/01/02 06:45:38;;;;;;;0.43;0.43;;;8.80;99.90;;;;;;4443565;32;20066;-66
2022/01/02 06:48:04;;;;;;;2.17;0.88;;;8.90;99.90;;;;;;4443099;32;20074;-66
2022/01/02 06:50:30;;;;;;;0.47;0.47;;;8.90;99.90;;;;;;4444067;32;20330;-66
2022/01/02 06:52:56;;;;;;;1.10;0.98;;;9.00;99.90;;;;;;4444427;32;20077;-66
2022/01/02 06:55:21;;;;;;;0.70;0.70;;;9.00;99.90;;;;;;4443927;32;20069;-66
2022/01/02 06:57:47;;;;;;;0.40;0.40;;;9.10;99.90;;;;;;4443974;32;20077;-66
2022/01/02 07:00:12;;;;;;;0.30;0.30;;;9.10;99.90;;;;;;4443519;32;20177;-67
2022/01/02 07:02:38;;;;;;;4.68;1.00;;;9.00;99.90;;;;;;4442859;32;20081;-66
2022/01/02 07:05:04;;;;;;;0.47;0.47;;;9.00;99.90;;;;;;4442950;32;20522;-66
2022/01/02 07:07:29;;;;;;;0.40;0.40;;;9.00;99.90;;;;;;4441048;32;20077;-66
2022/01/02 07:09:55;;;;;;;0.40;0.40;;;9.00;99.90;;;;;;4443233;32;20069;-66
2022/01/02 07:12:20;;;;;;;0.80;0.75;;;9.00;99.90;;;;;;4443051;32;20089;-66
2022/01/02 07:14:46;;;;;;;0.43;0.43;;;9.10;99.90;;;;;;4443516;32;20073;-67
2022/01/02 07:17:11;;;;;;;0.55;0.55;;;9.10;99.90;;;;;;4443269;32;20068;-66
2022/01/02 07:19:37;;;;;;;0.40;0.40;;;9.10;99.90;;;;;;4443372;32;20073;-66
2022/01/02 07:22:05;;;;;;;1.55;0.88;;;9.10;99.90;;;;;;4444318;32;20073;-66
2022/01/02 07:24:30;;;;;;;0.37;0.37;;;9.20;99.90;;;;;;4443867;32;20120;-66
2022/01/02 07:26:56;;;;;;;0.40;0.40;;;9.20;99.90;;;;;;4442628;32;20478;-66
2022/01/02 07:29:21;;;;;;;0.95;0.80;;;9.30;99.90;;;;;;4442578;32;20540;-67
2022/01/02 07:31:47;;;;;;;0.45;0.45;;;9.30;99.90;;;;;;4445388;32;20351;-66
2022/01/02 07:34:12;;;;;;;0.32;0.32;;;9.40;99.90;;;;;;4446260;32;20089;-66
2022/01/02 07:36:43;;;;;;;0.43;0.40;;;9.50;99.90;;;;;;4446378;32;20081;-66
2022/01/02 07:39:08;;;;;;;0.95;0.60;;;9.40;99.90;;;;;;4442460;32;20065;-66
2022/01/02 07:41:34;;;;;;;0.40;0.40;;;9.40;99.90;;;;;;4445796;32;20089;-66
2022/01/02 07:44:00;;;;;;;0.40;0.40;;;9.40;99.90;;;;;;4446510;32;20064;-67
2022/01/02 07:46:26;;;;;;;0.73;0.70;;;9.40;99.90;;;;;;4446739;32;20069;-65
2022/01/02 07:48:52;;;;;;;0.40;0.40;;;9.50;99.90;;;;;;4445730;32;20154;-66
2022/01/02 07:51:17;;;;;;;0.50;0.50;;;9.50;99.90;;;;;;4445453;32;20155;-67
2022/01/02 07:53:43;;;;;;;0.40;0.40;;;9.40;99.90;;;;;;4445589;32;20116;-66
2022/01/02 07:56:08;;;;;;;0.40;0.40;;;9.40;99.90;;;;;;4444672;32;20120;-66
2022/01/02 07:58:34;;;;;;;0.37;0.37;;;9.40;99.90;;;;;;4444315;32;20057;-66
2022/01/02 08:00:59;;;;;;;0.60;0.60;;;9.30;99.90;;;;;;4445244;32;20072;-66
2022/01/02 08:03:25;;;;;;;0.40;0.40;;;9.40;99.90;;;;;;4445394;32;20061;-66
2022/01/02 08:05:50;;;;;;;0.40;0.40;;;9.40;99.90;;;;;;4445368;32;20072;-66
2022/01/02 08:08:16;;;;;;;0.30;0.30;;;9.40;99.90;;;;;;4446993;32;20517;-65
2022/01/02 08:10:41;;;;;;;0.40;0.40;;;9.40;99.90;;;;;;4445173;32;20085;-66
2022/01/02 08:13:06;;;;;;;0.50;0.50;;;9.40;99.90;;;;;;4445817;32;20065;-67
2022/01/02 08:15:32;;;;;;;1.55;0.50;;;9.50;99.90;;;;;;4446360;32;20077;-65
2022/01/02 08:17:58;;;;;;;0.50;0.50;;;9.50;99.90;;;;;;4445311;32;20123;-65
2022/01/02 08:20:24;;;;;;;0.57;0.50;;;9.50;99.90;;;;;;4445037;32;20088;-66
2022/01/02 08:22:49;;;;;;;0.55;0.55;;;9.60;99.90;;;;;;4446587;32;20073;-67
2022/01/02 08:25:15;;;;;;;0.60;0.60;;;9.60;99.90;;;;;;4445300;32;20146;-66
2022/01/02 08:27:41;;;;;;;1.20;0.57;;;9.60;99.90;;;;;;4444206;32;20061;-66
2022/01/02 08:30:07;;;;;;;0.50;0.50;;;9.60;99.90;;;;;;4444647;32;21102;-67
2022/01/02 08:32:32;;;;;;;0.50;0.50;;;9.70;99.90;;;;;;4445003;32;20494;-67
2022/01/02 08:34:58;;;;;;;1.15;1.05;;;9.70;99.90;;;;;;4445155;32;20119;-65
2022/01/02 08:37:24;;;;;;;6.30;1.17;;;9.80;99.90;;;;;;4446440;32;20407;-66
2022/01/02 08:39:49;;;;;;;0.65;0.60;;;9.80;99.90;;;;;;4439894;32;20563;-66
2022/01/02 08:42:16;;;;;;;0.45;0.45;;;9.80;99.90;;;;;;4444218;32;20061;-67
2022/01/02 08:44:43;;;;;;;0.43;0.43;;;9.90;99.90;;;;;;4445812;32;20115;-68
2022/01/02 08:47:09;;;;;;;4.87;2.12;;;9.90;99.90;;;;;;4444883;32;20066;-66
2022/01/02 08:49:35;;;;;;;4.30;1.17;;;10.00;99.90;;;;;;4444439;32;20069;-66
2022/01/02 08:52:01;;;;;;;0.40;0.40;;;10.00;99.90;;;;;;4444621;32;20064;-66
2022/01/02 08:54:26;;;;;;;2.10;0.60;;;10.00;99.90;;;;;;4445135;32;20061;-66
2022/01/02 08:56:52;;;;;;;0.40;0.40;;;10.00;99.90;;;;;;4442221;32;20116;-72
2022/01/02 08:59:21;;;;;;;0.60;0.60;;;10.10;99.90;;;;;;4443816;32;20064;-67
2022/01/02 09:01:46;;;;;;;1.30;0.73;;;10.10;99.90;;;;;;4443951;32;20064;-66
2022/01/02 09:04:12;;;;;;;0.62;0.62;;;10.00;99.90;;;;;;4443665;32;20082;-66
2022/01/02 09:06:37;;;;;;;0.73;0.60;;;10.10;99.90;;;;;;4444687;32;20078;-66
2022/01/02 09:09:03;;;;;;;0.77;0.77;;;10.10;99.90;;;;;;4444047;32;20128;-67
2022/01/02 09:11:28;;;;;;;0.60;0.60;;;10.20;99.90;;;;;;4444898;32;20069;-66
2022/01/02 09:13:54;;;;;;;0.82;0.82;;;10.20;99.90;;;;;;4444810;32;20092;-65
2022/01/02 09:16:20;;;;;;;0.73;0.73;;;10.20;99.90;;;;;;4445260;32;20400;-65
2022/01/02 09:18:45;;;;;;;0.30;0.30;;;10.20;99.90;;;;;;4445658;32;20099;-66
2022/01/02 09:21:11;;;;;;;0.75;0.70;;;10.20;99.90;;;;;;4444606;32;20086;-67
2022/01/02 09:23:37;;;;;;;0.82;0.82;;;10.20;99.90;;;;;;4444233;32;20132;-67
2022/01/02 09:26:02;;;;;;;0.57;0.57;;;10.30;99.90;;;;;;4446276;32;20060;-67
2022/01/02 09:28:28;;;;;;;0.45;0.45;;;10.30;99.90;;;;;;4445173;32;20073;-65
2022/01/02 09:30:53;;;;;;;1.75;1.15;;;10.30;99.90;;;;;;4443610;32;20069;-66
2022/01/02 09:33:19;;;;;;;0.60;0.60;;;10.30;99.90;;;;;;4444502;32;20090;-66
2022/01/02 09:35:45;;;;;;;12.68;0.70;;;10.30;99.90;;;;;;4442939;32;20154;-66
2022/01/02 09:38:11;;;;;;;0.40;0.40;;;10.30;99.90;;;;;;4443884;32;20073;-65
2022/01/02 09:40:37;;;;;;;0.40;0.40;;;10.30;99.90;;;;;;4444115;32;20092;-65
2022/01/02 09:43:04;;;;;;;0.60;0.60;;;10.40;99.90;;;;;;4443125;32;20087;-65
2022/01/02 09:45:33;;;;;;;0.40;0.40;;;10.40;99.90;;;;;;4444606;32;20088;-66
2022/01/02 09:47:59;;;;;;;0.32;0.32;;;10.40;99.90;;;;;;4444283;32;20127;-65
2022/01/02 09:50:25;;;;;;;1.20;1.02;;;10.40;99.90;;;;;;4444575;32;20419;-65
2022/01/02 09:52:51;;;;;;;0.60;0.60;;;10.40;99.90;;;;;;4443772;32;20189;-65
2022/01/02 09:55:17;;;;;;;1.95;1.60;;;10.40;99.90;;;;;;4444027;32;20086;-65
2022/01/02 09:57:43;;;;;;;0.43;0.43;;;10.50;99.90;;;;;;4441875;32;20064;-65
2022/01/02 10:00:09;;;;;;;0.50;0.50;;;10.50;99.90;;;;;;4443309;32;20077;-65
2022/01/02 10:02:56;;;;;;;0.32;0.32;;;10.50;99.90;;;;;;4442196;32;20099;-65
2022/01/02 10:05:24;;;;;;;0.35;0.35;;;10.50;99.90;;;;;;4426434;32;20082;-65
2022/01/02 10:07:51;;;;;;;0.30;0.30;;;10.60;99.90;;;;;;4443612;32;20072;-65
2022/01/02 10:10:18;;;;;;;0.47;0.47;;;10.60;99.90;;;;;;4443168;32;20069;-65
2022/01/02 10:12:43;;;;;;;0.45;0.45;;;10.60;99.90;;;;;;4442525;32;20088;-65
2022/01/02 10:15:14;;;;;;;2.28;1.02;;;10.60;99.90;;;;;;4443012;32;20069;-65
2022/01/02 10:18:01;;;;;;;1.20;0.98;;;10.60;99.90;;;;;;4443392;32;20601;-65
2022/01/02 10:20:30;;;;;;;0.50;0.50;;;10.60;99.90;;;;;;4431982;32;20077;-65
2022/01/02 10:23:18;;;;;;;0.52;0.52;;;10.60;99.90;;;;;;4444345;32;20065;-65
2022/01/02 10:25:47;;;;;;;1.02;0.65;;;10.60;99.90;;;;;;4409402;32;20082;-65
2022/01/02 10:28:34;;;;;;;0.62;0.62;;;10.60;99.90;;;;;;4442403;32;20524;-65
2022/01/02 10:31:07;;;;;;;3.00;1.15;;;10.70;99.90;;;;;;4430375;32;20077;-65
2022/01/02 10:33:48;;;;;;;0.82;0.82;;;10.60;99.90;;;;;;4443372;32;20096;-65
2022/01/02 10:36:14;;;;;;;0.50;0.50;;;10.70;99.90;;;;;;4444162;32;20489;-65
2022/01/02 10:38:58;;;;;;;0.50;0.50;;;10.70;99.90;;;;;;4443862;32;20089;-65
2022/01/02 10:41:34;;;;;;;0.60;0.60;;;10.70;99.90;;;;;;4443232;32;20089;-65
2022/01/02 10:44:21;;;;;;;0.45;0.45;;;10.70;99.90;;;;;;4442575;32;20531;-65
2022/01/02 10:47:24;;;;;;;0.65;0.65;;;10.70;99.90;;;;;;4430673;32;20077;-65
2022/01/02 10:49:54;;;;;;;0.60;0.60;;;10.70;99.90;;;;;;4433914;32;20446;-65
2022/01/02 10:52:27;;;;;;;0.40;0.40;;;10.70;99.90;;;;;;4439963;32;20116;-64
2022/01/02 10:54:53;;;;;;;2.50;1.10;;;10.70;99.90;;;;;;4443172;32;20082;-65
2022/01/02 10:57:18;;;;;;;1.85;0.80;;;10.80;99.90;;;;;;4443024;32;20652;-66
2022/01/02 10:59:44;;;;;;;0.50;0.50;;;10.70;99.90;;;;;;4442615;32;20427;-65
2022/01/02 11:02:12;;;;;;;0.68;0.60;;;10.70;99.90;;;;;;4441852;32;20065;-65
2022/01/02 11:04:55;;;;;;;0.98;0.88;;;10.70;99.90;;;;;;4441766;32;20082;-65
2022/01/02 11:07:22;;;;;;;0.55;0.55;;;10.70;99.90;;;;;;4441194;32;20524;-66
2022/01/02 11:09:52;;;;;;;0.62;0.62;;;10.70;99.90;;;;;;4445791;32;20601;-65
2022/01/02 11:12:18;;;;;;;0.88;0.88;;;10.70;99.90;;;;;;4444658;32;20073;-66
2022/01/02 11:14:44;;;;;;;0.40;0.40;;;10.70;99.90;;;;;;4445378;32;20139;-65
2022/01/02 11:17:11;;;;;;;0.40;0.40;;;10.70;99.90;;;;;;4445528;32;20065;-66
2022/01/02 11:19:37;;;;;;;1.58;0.50;;;10.70;99.90;;;;;;4444428;32;20100;-66
2022/01/02 11:22:04;;;;;;;5.65;1.80;;;10.60;99.90;;;;;;4444935;32;20132;-66
2022/01/02 11:24:38;;;;;;;0.70;0.70;;;10.70;99.90;;;;;;4445016;32;20069;-66
2022/01/02 11:27:15;;;;;;;2.65;1.75;;;10.70;99.90;;;;;;4444522;32;20070;-66
2022/01/02 11:29:40;;;;;;;5.85;0.98;;;10.70;99.90;;;;;;4446619;32;20070;-66
2022/01/02 11:32:24;;;;;;;0.50;0.50;;;10.70;99.90;;;;;;4446388;32;20065;-66
2022/01/02 11:34:51;;;;;;;0.70;0.60;;;10.70;99.90;;;;;;4429330;32;20077;-66
2022/01/02 11:37:23;;;;;;;0.50;0.50;;;10.70;99.90;;;;;;4430382;32;20086;-66
2022/01/02 11:39:54;;;;;;;0.30;0.30;;;10.70;99.90;;;;;;4429767;32;20069;-66
2022/01/02 11:42:38;;;;;;;0.45;0.45;;;10.70;99.90;;;;;;4430285;32;20521;-65
2022/01/02 11:45:06;;;;;;;0.50;0.50;;;10.70;99.90;;;;;;4430784;32;20102;-65
2022/01/02 11:47:47;;;;;;;0.50;0.50;;;10.70;99.90;;;;;;4429978;32;20073;-66
2022/01/02 11:50:34;;;;;;;;;;;10.70;99.90;;;;;;4431864;32;20140;-66
2022/01/02 11:53:18;;;;;;;0.28;0.28;;;10.60;99.90;;;;;;4418891;32;20378;-66
2022/01/02 11:55:45;;;;;;;0.80;0.80;;;10.60;99.90;;;;;;4430961;32;20061;-66
2022/01/02 11:58:11;;;;;;;0.57;0.57;;;10.70;99.90;;;;;;4427293;32;20057;-65
2022/01/02 12:00:40;;;;;;;0.50;0.50;;;10.70;99.90;;;;;;4429435;32;20520;-66
2022/01/02 12:03:26;;;;;;;1.00;0.70;;;10.60;99.90;;;;;;4428486;32;20069;-66
2022/01/02 12:06:12;;;;;;;0.77;0.73;;;10.60;99.90;;;;;;4406942;32;20136;-65
2022/01/02 12:08:38;;;;;;;2.47;0.93;;;10.70;99.90;;;;;;4419229;32;20085;-65
2022/01/02 12:11:32;;;;;;;3.40;0.90;;;10.70;99.90;;;;;;4415348;32;20061;-66
2022/01/02 12:14:07;;;;;;;0.30;0.30;;;10.60;99.90;;;;;;4416011;32;20066;-65
2022/01/02 12:16:35;;;;;;;0.65;0.55;;;10.60;99.90;;;;;;4430893;32;20584;-67
2022/01/02 12:19:02;;;;;;;1.10;0.73;;;10.60;99.90;;;;;;4429094;32;20136;-65
2022/01/02 12:21:28;;;;;;;0.47;0.47;;;10.70;99.90;;;;;;4429650;32;20410;-65
2022/01/02 12:23:54;;;;;;;0.30;0.30;;;10.70;99.90;;;;;;4429352;32;20117;-65
2022/01/02 12:26:39;;;;;;;0.93;0.93;;;10.70;99.90;;;;;;4428837;32;20115;-65
2022/01/02 12:29:10;;;;;;;0.50;0.50;;;10.60;99.90;;;;;;4429530;32;20580;-64
2022/01/02 12:31:38;;;;;;;1.58;0.40;;;10.60;99.90;;;;;;4428722;32;20539;-65
2022/01/02 12:34:14;;;;;;;0.30;0.30;;;10.60;99.90;;;;;;4440168;32;20123;-64
2022/01/02 12:36:42;;;;;;;1.27;0.82;;;10.60;99.90;;;;;;4444195;32;20430;-64
2022/01/02 12:39:12;;;;;;;1.62;0.47;;;10.50;99.90;;;;;;4444166;32;20111;-66
2022/01/02 12:41:41;;;;;;;1.15;0.70;;;10.50;99.90;;;;;;4443974;32;20517;-65
2022/01/02 12:44:09;;;;;;;0.40;0.40;;;10.50;99.90;;;;;;4445429;32;20570;-66
2022/01/02 12:46:54;;;;;;;0.60;0.60;;;10.50;99.90;;;;;;4444622;32;20529;-66
2022/01/02 12:49:26;;;;;;;6.22;1.00;;;10.50;99.90;;;;;;4445317;32;20508;-66
2022/01/02 12:51:57;;;;;;;0.32;0.32;;;10.40;99.90;;;;;;4445645;32;20138;-69
2022/01/02 12:54:24;;;;;;;0.70;0.70;;;10.40;99.90;;;;;;4428849;32;20070;-67
2022/01/02 12:56:52;;;;;;;0.40;0.40;;;10.40;99.90;;;;;;4445078;32;20144;-65
2022/01/02 12:59:21;;;;;;;0.93;0.82;;;10.40;99.90;;;;;;4444573;32;20501;-66
2022/01/02 13:01:51;;;;;;;0.70;0.70;;;10.40;99.90;;;;;;4443892;32;20115;-68